Time;durP1;ratioP1;P1;durP2;ratioP2;P2;SDS_P1;SDS_P2;PMS_P1;PMS_P2;Temp;Humidity;BMP_temperature;BMP_pressure;BME280_temperature;BME280_humidity;BME280_pressure;Samples;Min_cycle;Max_cycle;Signal;HPM_P1;HPM_P2
2023/11/13 00:02:46;;;;;;;5.38;1.98;;;;;;;;;;6166364;23;20029;-64
2023/11/13 00:05:40;;;;;;;5.30;1.88;;;;;;;;;;6171621;23;20048;-64
2023/11/13 00:08:27;;;;;;;3.53;2.00;;;;;;;;;;6173534;23;20032;-64
2023/11/13 00:11:21;;;;;;;5.60;2.25;;;;;;;;;;6162584;23;20091;-64
2023/11/13 00:14:15;;;;;;;2.97;1.60;;;;;;;;;;6172470;23;20525;-64
2023/11/13 00:17:09;;;;;;;3.53;1.65;;;;;;;;;;6176053;23;20079;-61
2023/11/13 00:19:57;;;;;;;3.55;1.60;;;;;;;;;;6176268;23;20114;-59
2023/11/13 00:22:50;;;;;;;3.65;2.05;;;;;;;;;;6175056;23;20025;-59
2023/11/13 00:25:37;;;;;;;4.18;2.00;;;;;;;;;;6176003;23;20648;-59
2023/11/13 00:28:31;;;;;;;4.70;1.95;;;;;;;;;;6174905;23;20099;-59
2023/11/13 00:31:18;;;;;;;3.20;1.75;;;;;;;;;;6170603;23;20182;-59
2023/11/13 00:34:13;;;;;;;2.85;1.73;;;;;;;;;;6174752;23;20095;-58
2023/11/13 00:37:00;;;;;;;4.00;2.08;;;;;;;;;;6176100;23;20506;-59
2023/11/13 00:39:54;;;;;;;8.23;2.40;;;;;;;;;;6175115;23;20033;-52
2023/11/13 00:42:41;;;;;;;4.43;1.95;;;;;;;;;;6173793;23;20083;-51
2023/11/13 00:45:35;;;;;;;2.30;1.88;;;;;;;;;;6175496;23;20086;-53
2023/11/13 00:48:22;;;;;;;4.22;2.20;;;;;;;;;;6173608;23;20096;-54
2023/11/13 00:51:16;;;;;;;5.50;2.47;;;;;;;;;;6174208;23;20017;-49
2023/11/13 00:54:03;;;;;;;5.38;2.28;;;;;;;;;;6176125;23;20084;-61
2023/11/13 00:56:57;;;;;;;3.80;2.20;;;;;;;;;;6172560;23;20021;-52
2023/11/13 00:59:51;;;;;;;5.45;2.65;;;;;;;;;;6173735;23;20088;-54
2023/11/13 01:02:51;;;;;;;5.93;3.28;;;;;;;;;;6172890;23;20105;-50
2023/11/13 01:05:39;;;;;;;4.15;3.30;;;;;;;;;;6174277;23;20025;-54
2023/11/13 01:08:33;;;;;;;4.72;3.20;;;;;;;;;;6175986;23;20071;-54
2023/11/13 01:11:20;;;;;;;5.03;3.00;;;;;;;;;;6176431;23;20021;-50
2023/11/13 01:14:14;;;;;;;7.00;3.65;;;;;;;;;;6175645;23;20021;-62
2023/11/13 01:17:07;;;;;;;5.05;3.22;;;;;;;;;;6175418;23;20029;-61
2023/11/13 01:20:01;;;;;;;6.35;2.97;;;;;;;;;;6175872;23;20146;-61
2023/11/13 01:22:55;;;;;;;8.73;3.72;;;;;;;;;;6174480;23;20025;-61
2023/11/13 01:25:42;;;;;;;5.30;3.97;;;;;;;;;;6176885;23;20080;-61
2023/11/13 01:28:36;;;;;;;6.40;3.53;;;;;;;;;;6175430;23;20075;-61
2023/11/13 01:31:23;;;;;;;8.90;3.55;;;;;;;;;;6175970;23;20021;-61
2023/11/13 01:34:17;;;;;;;7.75;3.85;;;;;;;;;;6173369;23;20021;-63
2023/11/13 01:37:04;;;;;;;5.53;3.83;;;;;;;;;;6174002;23;20029;-62
2023/11/13 01:39:57;;;;;;;6.18;3.83;;;;;;;;;;6175964;23;20025;-63
2023/11/13 01:42:52;;;;;;;11.10;4.25;;;;;;;;;;6173955;23;20056;-62
2023/11/13 01:45:46;;;;;;;7.05;4.03;;;;;;;;;;6176103;23;20043;-63
2023/11/13 01:48:34;;;;;;;6.95;4.53;;;;;;;;;;6174215;23;20566;-60
2023/11/13 01:51:08;;;;;;;5.45;3.13;;;;;;;;;;6177314;23;20029;-54
2023/11/13 01:53:35;;;;;;;8.93;3.95;;;;;;;;;;6174409;23;20025;-64
2023/11/13 01:56:03;;;;;;;7.30;4.05;;;;;;;;;;6175525;23;20025;-64
2023/11/13 01:58:57;;;;;;;6.22;3.90;;;;;;;;;;6173153;23;20021;-64
2023/11/13 02:01:50;;;;;;;4.45;3.35;;;;;;;;;;6173690;23;20355;-64
2023/11/13 02:04:25;;;;;;;9.02;3.88;;;;;;;;;;6173468;23;20025;-64
2023/11/13 02:07:12;;;;;;;6.10;3.65;;;;;;;;;;6174564;23;20033;-59
2023/11/13 02:10:07;;;;;;;8.02;3.78;;;;;;;;;;6169185;23;20025;-62
2023/11/13 02:12:54;;;;;;;4.93;3.60;;;;;;;;;;6171690;23;20023;-62
2023/11/13 02:15:48;;;;;;;5.63;3.15;;;;;;;;;;6173206;23;20069;-62
2023/11/13 02:18:41;;;;;;;8.88;3.30;;;;;;;;;;6173288;23;20546;-62
2023/11/13 02:21:36;;;;;;;5.53;3.20;;;;;;;;;;6174047;23;20027;-62
2023/11/13 02:24:23;;;;;;;4.13;2.95;;;;;;;;;;6171360;23;20032;-63
2023/11/13 02:27:19;;;;;;;8.43;3.22;;;;;;;;;;6173637;23;20088;-61
2023/11/13 02:30:06;;;;;;;5.85;3.30;;;;;;;;;;6174796;23;20029;-49
2023/11/13 02:33:00;;;;;;;5.55;3.15;;;;;;;;;;6174089;23;20083;-52
2023/11/13 02:35:47;;;;;;;4.57;3.00;;;;;;;;;;6174660;23;20021;-48
2023/11/13 02:38:41;;;;;;;5.65;2.78;;;;;;;;;;6173625;23;20021;-49
2023/11/13 02:41:35;;;;;;;18.00;3.30;;;;;;;;;;6174333;23;20021;-52
2023/11/13 02:44:22;;;;;;;3.83;2.90;;;;;;;;;;6175796;23;20017;-50
2023/11/13 02:47:17;;;;;;;4.90;3.20;;;;;;;;;;6169096;23;20025;-50
2023/11/13 02:50:03;;;;;;;4.00;2.90;;;;;;;;;;6174398;23;20031;-53
2023/11/13 02:52:57;;;;;;;6.03;3.28;;;;;;;;;;6173278;23;20029;-50
2023/11/13 02:55:44;;;;;;;7.43;3.35;;;;;;;;;;6173549;23;20029;-48
2023/11/13 02:58:38;;;;;;;5.68;2.92;;;;;;;;;;6172904;23;20025;-50
2023/11/13 03:01:31;;;;;;;6.05;3.20;;;;;;;;;;6170031;23;20025;-47
2023/11/13 03:04:25;;;;;;;5.80;3.88;;;;;;;;;;6171909;23;20032;-55
2023/11/13 03:07:12;;;;;;;4.63;3.25;;;;;;;;;;6174817;23;20108;-61
2023/11/13 03:10:06;;;;;;;4.47;3.28;;;;;;;;;;6172985;23;20021;-60
2023/11/13 03:12:53;;;;;;;4.07;3.47;;;;;;;;;;6173076;23;20024;-61
2023/11/13 03:15:48;;;;;;;3.88;3.30;;;;;;;;;;6174197;23;20032;-61
2023/11/13 03:18:34;;;;;;;6.15;4.07;;;;;;;;;;6173578;23;20060;-61
2023/11/13 03:21:28;;;;;;;6.18;3.88;;;;;;;;;;6167109;23;20029;-63
2023/11/13 03:24:15;;;;;;;5.13;3.20;;;;;;;;;;6173395;23;20028;-59
2023/11/13 03:27:09;;;;;;;5.35;4.15;;;;;;;;;;6171993;23;20079;-60
2023/11/13 03:29:58;;;;;;;7.70;4.70;;;;;;;;;;6175637;23;20021;-59
2023/11/13 03:32:50;;;;;;;7.05;4.85;;;;;;;;;;6167040;23;20028;-60
2023/11/13 03:35:37;;;;;;;10.98;4.70;;;;;;;;;;6172675;23;20367;-59
2023/11/13 03:38:31;;;;;;;8.38;4.90;;;;;;;;;;6173397;23;20017;-60
2023/11/13 03:41:18;;;;;;;7.80;4.93;;;;;;;;;;6174456;23;20029;-60
2023/11/13 03:44:12;;;;;;;11.90;5.72;;;;;;;;;;6174212;23;20362;-61
2023/11/13 03:46:59;;;;;;;12.38;6.80;;;;;;;;;;6173575;23;20021;-60
2023/11/13 03:49:53;;;;;;;4.80;3.60;;;;;;;;;;6174776;23;20455;-60
2023/11/13 03:52:40;;;;;;;8.85;3.75;;;;;;;;;;6173081;23;20025;-60
2023/11/13 03:55:34;;;;;;;8.00;4.72;;;;;;;;;;6172372;23;20025;-60
2023/11/13 03:58:21;;;;;;;6.65;4.70;;;;;;;;;;6172790;23;20103;-63
2023/11/13 04:01:22;;;;;;;7.95;4.80;;;;;;;;;;6163948;23;20169;-54
2023/11/13 04:04:10;;;;;;;6.38;4.47;;;;;;;;;;6170191;23;20033;-52
2023/11/13 04:06:46;;;;;;;5.55;4.03;;;;;;;;;;6170905;23;20841;-51
2023/11/13 04:09:20;;;;;;;5.10;3.60;;;;;;;;;;6172135;23;20165;-54
2023/11/13 04:12:07;;;;;;;6.15;3.70;;;;;;;;;;6175578;23;20078;-48
2023/11/13 04:15:01;;;;;;;4.93;3.60;;;;;;;;;;6173441;23;20044;-50
2023/11/13 04:17:55;;;;;;;4.00;2.65;;;;;;;;;;6173593;23;20028;-53
2023/11/13 04:20:49;;;;;;;5.03;3.05;;;;;;;;;;6175011;23;20075;-51
2023/11/13 04:23:36;;;;;;;4.55;3.65;;;;;;;;;;6173209;23;20068;-53
2023/11/13 04:26:30;;;;;;;6.85;3.22;;;;;;;;;;6172797;23;20230;-53
2023/11/13 04:29:17;;;;;;;4.97;3.25;;;;;;;;;;6172660;23;20028;-53
2023/11/13 04:32:11;;;;;;;6.38;3.25;;;;;;;;;;6172455;23;20075;-53
2023/11/13 04:35:13;;;;;;;5.93;3.53;;;;;;;;;;6173260;23;20079;-62
2023/11/13 04:38:13;;;;;;;7.85;3.70;;;;;;;;;;6171835;23;20017;-59
2023/11/13 04:41:00;;;;;;;9.45;3.35;;;;;;;;;;6174685;23;20018;-59
2023/11/13 04:43:34;;;;;;;4.70;3.17;;;;;;;;;;6172022;23;20075;-59
2023/11/13 04:46:21;;;;;;;4.18;3.10;;;;;;;;;;6171573;23;20538;-59
2023/11/13 04:49:15;;;;;;;7.00;4.10;;;;;;;;;;6173432;23;20424;-60
2023/11/13 04:52:06;;;;;;;5.75;3.38;;;;;;;;;;6174434;23;20486;-59
2023/11/13 04:54:57;;;;;;;5.07;3.33;;;;;;;;;;6175765;23;20045;-62
2023/11/13 04:57:44;;;;;;;8.68;3.60;;;;;;;;;;6170847;23;20029;-61
2023/11/13 05:00:44;;;;;;;5.35;3.95;;;;;;;;;;6175078;23;20047;-61
2023/11/13 05:03:33;;;;;;;6.47;3.85;;;;;;;;;;6172428;23;20032;-61
2023/11/13 05:06:27;;;;;;;6.57;4.40;;;;;;;;;;6175135;23;20028;-61
2023/11/13 05:09:14;;;;;;;8.63;4.70;;;;;;;;;;6175228;23;20091;-61
2023/11/13 05:12:07;;;;;;;7.55;4.20;;;;;;;;;;6177791;23;20072;-63
2023/11/13 05:14:54;;;;;;;5.68;4.40;;;;;;;;;;6176321;23;20021;-59
2023/11/13 05:17:48;;;;;;;6.22;4.47;;;;;;;;;;6173465;23;20021;-57
2023/11/13 05:20:45;;;;;;;9.02;4.95;;;;;;;;;;6175056;23;20466;-59
2023/11/13 05:23:37;;;;;;;6.22;4.50;;;;;;;;;;6175133;23;20084;-59
2023/11/13 05:26:23;;;;;;;6.70;4.50;;;;;;;;;;6172916;23;20091;-59
2023/11/13 05:29:17;;;;;;;10.75;5.20;;;;;;;;;;6173819;23;20493;-59
2023/11/13 05:32:04;;;;;;;7.40;4.22;;;;;;;;;;6172440;23;20336;-60
2023/11/13 05:34:58;;;;;;;7.70;4.70;;;;;;;;;;6172614;23;20351;-52
2023/11/13 05:37:45;;;;;;;6.05;4.35;;;;;;;;;;6172908;23;20411;-52
2023/11/13 05:40:39;;;;;;;8.55;4.65;;;;;;;;;;6174125;23;20064;-53
2023/11/13 05:43:26;;;;;;;6.03;4.35;;;;;;;;;;6175515;23;20021;-49
2023/11/13 05:46:20;;;;;;;7.25;5.00;;;;;;;;;;6173295;23;20035;-50
2023/11/13 05:49:07;;;;;;;9.95;5.03;;;;;;;;;;6173865;23;20021;-59
2023/11/13 05:52:01;;;;;;;9.35;4.85;;;;;;;;;;6172921;23;20028;-61
2023/11/13 05:54:50;;;;;;;7.82;4.75;;;;;;;;;;6171237;23;20029;-61
2023/11/13 05:57:45;;;;;;;9.88;5.40;;;;;;;;;;6174662;23;20021;-61
2023/11/13 06:00:44;;;;;;;7.68;4.88;;;;;;;;;;6172718;23;20044;-61
2023/11/13 06:03:44;;;;;;;10.35;5.60;;;;;;;;;;6174716;23;20025;-61
2023/11/13 06:06:32;;;;;;;9.68;5.32;;;;;;;;;;6175989;23;20052;-51
2023/11/13 06:09:26;;;;;;;10.00;5.60;;;;;;;;;;6175098;23;20083;-64
2023/11/13 06:12:13;;;;;;;10.27;5.43;;;;;;;;;;6176705;23;20072;-64
2023/11/13 06:15:10;;;;;;;8.90;5.30;;;;;;;;;;6175874;23;20076;-64
2023/11/13 06:17:57;;;;;;;9.88;5.63;;;;;;;;;;6175551;23;20045;-64
2023/11/13 06:20:49;;;;;;;10.57;6.07;;;;;;;;;;6175700;23;20025;-64
2023/11/13 06:23:36;;;;;;;10.07;5.78;;;;;;;;;;6176319;23;20025;-64
2023/11/13 06:26:30;;;;;;;10.55;6.13;;;;;;;;;;6175777;23;20508;-60
2023/11/13 06:29:18;;;;;;;10.10;5.60;;;;;;;;;;6174274;23;20083;-62
2023/11/13 06:32:11;;;;;;;11.20;5.57;;;;;;;;;;6174633;23;20395;-63
2023/11/13 06:34:58;;;;;;;11.20;6.28;;;;;;;;;;6176472;23;20043;-62
2023/11/13 06:37:52;;;;;;;11.18;6.20;;;;;;;;;;6171314;23;20021;-62
2023/11/13 06:40:40;;;;;;;9.57;6.05;;;;;;;;;;6175647;23;20021;-62
2023/11/13 06:43:33;;;;;;;11.18;6.25;;;;;;;;;;6173793;23;20025;-59
2023/11/13 06:46:21;;;;;;;7.68;4.60;;;;;;;;;;6174687;23;20486;-51
2023/11/13 06:49:18;;;;;;;11.10;6.82;;;;;;;;;;6174716;23;20108;-52
2023/11/13 06:52:09;;;;;;;13.20;6.57;;;;;;;;;;6173853;23;20804;-53
2023/11/13 06:55:03;;;;;;;11.88;6.65;;;;;;;;;;6173887;23;20047;-51
2023/11/13 06:57:50;;;;;;;12.45;6.25;;;;;;;;;;6174881;23;20025;-48
2023/11/13 07:00:52;;;;;;;14.27;6.88;;;;;;;;;;6174755;23;20029;-54
2023/11/13 07:03:45;;;;;;;11.50;6.88;;;;;;;;;;6173220;23;20467;-59
2023/11/13 07:06:40;;;;;;;14.15;7.57;;;;;;;;;;6172559;23;20017;-60
2023/11/13 07:09:34;;;;;;;11.63;7.32;;;;;;;;;;6174999;23;20017;-60
2023/11/13 07:12:22;;;;;;;12.45;7.00;;;;;;;;;;6174816;23;20020;-61
2023/11/13 07:15:16;;;;;;;10.20;6.68;;;;;;;;;;6173004;23;20039;-60
2023/11/13 07:18:04;;;;;;;15.95;7.88;;;;;;;;;;6175804;23;20021;-59
2023/11/13 07:20:57;;;;;;;9.98;6.90;;;;;;;;;;6174464;23;20025;-60
2023/11/13 07:23:44;;;;;;;12.57;7.57;;;;;;;;;;6174308;23;20557;-59
2023/11/13 07:26:38;;;;;;;13.10;7.28;;;;;;;;;;6175656;23;20025;-57
2023/11/13 07:29:26;;;;;;;10.32;5.95;;;;;;;;;;6173442;23;20457;-59
2023/11/13 07:32:19;;;;;;;9.93;6.78;;;;;;;;;;6175230;23;20072;-62
2023/11/13 07:35:07;;;;;;;9.00;6.03;;;;;;;;;;6168752;23;20032;-54
2023/11/13 07:38:01;;;;;;;9.90;5.80;;;;;;;;;;6174117;23;20021;-53
2023/11/13 07:40:47;;;;;;;9.30;6.45;;;;;;;;;;6173737;23;20028;-52
2023/11/13 07:43:41;;;;;;;11.75;6.10;;;;;;;;;;6174424;23;20025;-54
2023/11/13 07:46:35;;;;;;;10.15;6.15;;;;;;;;;;6175154;23;20021;-54
2023/11/13 07:49:22;;;;;;;9.32;5.68;;;;;;;;;;6175189;23;20454;-53
2023/11/13 07:52:16;;;;;;;12.07;5.65;;;;;;;;;;6176114;23;20083;-52
2023/11/13 07:55:04;;;;;;;11.77;5.10;;;;;;;;;;6174012;23;20075;-54
2023/11/13 07:57:57;;;;;;;8.25;5.50;;;;;;;;;;6172549;23;20767;-60
2023/11/13 08:00:52;;;;;;;7.72;5.22;;;;;;;;;;6163931;23;20029;-59
2023/11/13 08:03:51;;;;;;;7.63;4.75;;;;;;;;;;6174764;23;20017;-61
2023/11/13 08:06:39;;;;;;;6.88;4.85;;;;;;;;;;6174338;23;20351;-61
2023/11/13 08:09:46;;;;;;;6.55;4.43;;;;;;;;;;6174439;23;20021;-61
2023/11/13 08:12:34;;;;;;;8.52;5.03;;;;;;;;;;6166109;23;20023;-61
2023/11/13 08:15:29;;;;;;;6.68;4.85;;;;;;;;;;6173876;23;20048;-61
2023/11/13 08:18:15;;;;;;;8.65;4.85;;;;;;;;;;6174211;23;20107;-60
2023/11/13 08:21:10;;;;;;;7.25;4.93;;;;;;;;;;6173688;23;20080;-52
2023/11/13 08:23:56;;;;;;;6.80;5.10;;;;;;;;;;6173765;23;20028;-52
2023/11/13 08:26:50;;;;;;;7.35;4.57;;;;;;;;;;6174494;23;20025;-53
2023/11/13 08:29:37;;;;;;;7.13;4.85;;;;;;;;;;6174482;23;20031;-53
2023/11/13 08:32:31;;;;;;;8.57;5.47;;;;;;;;;;6175716;23;20024;-53
2023/11/13 08:35:19;;;;;;;8.35;5.75;;;;;;;;;;6175631;23;20053;-59
2023/11/13 08:38:12;;;;;;;9.07;5.75;;;;;;;;;;6176259;23;20415;-51
2023/11/13 08:41:00;;;;;;;7.47;5.55;;;;;;;;;;6172547;23;20025;-51
2023/11/13 08:43:53;;;;;;;8.07;5.00;;;;;;;;;;6172597;23;20114;-51
2023/11/13 08:46:40;;;;;;;9.15;5.10;;;;;;;;;;6176549;23;20080;-51
2023/11/13 08:49:34;;;;;;;8.15;5.65;;;;;;;;;;6176782;23;20017;-53
2023/11/13 08:52:22;;;;;;;7.25;5.00;;;;;;;;;;6177294;23;20024;-53
2023/11/13 08:55:17;;;;;;;8.00;5.05;;;;;;;;;;6177034;23;20028;-61
2023/11/13 08:58:09;;;;;;;7.88;5.32;;;;;;;;;;6175390;23;20377;-61
2023/11/13 09:01:11;;;;;;;8.00;5.43;;;;;;;;;;6171704;23;20036;-62
2023/11/13 09:04:06;;;;;;;8.52;5.05;;;;;;;;;;6174894;23;20028;-61
2023/11/13 09:06:58;;;;;;;6.35;4.78;;;;;;;;;;6176140;23;20021;-53
2023/11/13 09:09:45;;;;;;;7.72;5.05;;;;;;;;;;6175400;23;20052;-51
2023/11/13 09:12:39;;;;;;;6.45;4.68;;;;;;;;;;6175129;23;20027;-53
2023/11/13 09:15:34;;;;;;;6.80;4.40;;;;;;;;;;6176162;23;20032;-53
2023/11/13 09:18:26;;;;;;;9.45;4.50;;;;;;;;;;6175577;23;20056;-52
2023/11/13 09:21:17;;;;;;;9.52;5.30;;;;;;;;;;6175656;23;20410;-53
2023/11/13 09:24:05;;;;;;;6.88;5.05;;;;;;;;;;6174768;23;20024;-62
2023/11/13 09:26:57;;;;;;;7.38;4.40;;;;;;;;;;6175637;23;20032;-58
2023/11/13 09:29:46;;;;;;;7.05;4.88;;;;;;;;;;6175249;23;20027;-58
2023/11/13 09:32:40;;;;;;;7.90;4.95;;;;;;;;;;6173327;23;20355;-58
2023/11/13 09:35:29;;;;;;;8.83;4.53;;;;;;;;;;6174857;23;20108;-58
2023/11/13 09:38:21;;;;;;;8.45;4.47;;;;;;;;;;6177083;23;20303;-59
2023/11/13 09:41:08;;;;;;;6.95;4.68;;;;;;;;;;6176004;23;20059;-59
2023/11/13 09:44:06;;;;;;;7.22;4.72;;;;;;;;;;6175021;23;20021;-62
2023/11/13 09:46:53;;;;;;;5.97;4.53;;;;;;;;;;6174781;23;20079;-61
2023/11/13 09:49:59;;;;;;;6.80;5.32;;;;;;;;;;6175334;23;20017;-63
2023/11/13 09:52:59;;;;;;;10.48;7.03;;;;;;;;;;6177179;23;20029;-62
2023/11/13 09:55:46;;;;;;;8.48;6.47;;;;;;;;;;6173348;23;20025;-62
2023/11/13 09:58:41;;;;;;;5.68;4.10;;;;;;;;;;6175380;23;20025;-64
2023/11/13 10:01:35;;;;;;;6.63;4.65;;;;;;;;;;6173840;23;20029;-65
2023/11/13 10:04:29;;;;;;;8.43;4.90;;;;;;;;;;6174997;23;20537;-64
2023/11/13 10:07:18;;;;;;;7.03;4.70;;;;;;;;;;6174613;23;20426;-65
2023/11/13 10:10:17;;;;;;;5.78;4.72;;;;;;;;;;6175840;23;20100;-56
2023/11/13 10:13:01;;;;;;;7.68;4.90;;;;;;;;;;6174345;23;20028;-52
2023/11/13 10:15:55;;;;;;;10.48;6.68;;;;;;;;;;6175937;23;20024;-53
2023/11/13 10:18:43;;;;;;;6.65;4.93;;;;;;;;;;6175694;23;20482;-49
2023/11/13 10:21:36;;;;;;;7.75;5.00;;;;;;;;;;6176182;23;20032;-54
2023/11/13 10:24:24;;;;;;;8.50;5.80;;;;;;;;;;6173954;23;20033;-52
2023/11/13 10:27:23;;;;;;;8.05;5.25;;;;;;;;;;6176601;23;20029;-59
2023/11/13 10:30:12;;;;;;;11.55;6.93;;;;;;;;;;6174320;23;20048;-58
2023/11/13 10:33:14;;;;;;;11.38;7.53;;;;;;;;;;6176017;23;20117;-59
2023/11/13 10:36:17;;;;;;;6.93;4.68;;;;;;;;;;6174300;23;20079;-59
2023/11/13 10:39:11;;;;;;;11.68;5.78;;;;;;;;;;6174389;23;20025;-65
2023/11/13 10:42:02;;;;;;;10.10;6.10;;;;;;;;;;6175454;23;20031;-60
2023/11/13 10:44:56;;;;;;;8.18;5.60;;;;;;;;;;6174063;23;20059;-58
2023/11/13 10:47:49;;;;;;;6.50;4.95;;;;;;;;;;6174784;23;20021;-60
2023/11/13 10:50:38;;;;;;;6.22;4.22;;;;;;;;;;6171970;23;20049;-58
2023/11/13 10:53:35;;;;;;;7.90;4.53;;;;;;;;;;6176234;23;20056;-58
2023/11/13 10:56:21;;;;;;;7.13;4.13;;;;;;;;;;6174330;23;20039;-62
2023/11/13 10:59:15;;;;;;;8.73;4.00;;;;;;;;;;6174701;23;20072;-62
2023/11/13 11:02:21;;;;;;;5.18;3.60;;;;;;;;;;6174298;23;20033;-62
2023/11/13 11:05:24;;;;;;;6.40;4.07;;;;;;;;;;6173458;23;20025;-49
2023/11/13 11:08:12;;;;;;;6.35;4.18;;;;;;;;;;6175167;23;20088;-58
2023/11/13 11:11:05;;;;;;;5.32;3.80;;;;;;;;;;6174162;23;20025;-62
2023/11/13 11:14:06;;;;;;;5.13;3.80;;;;;;;;;;6176017;23;20028;-62
2023/11/13 11:17:00;;;;;;;5.80;3.97;;;;;;;;;;6166344;23;20397;-62
2023/11/13 11:19:58;;;;;;;5.20;4.20;;;;;;;;;;6170377;23;20557;-62
2023/11/13 11:22:49;;;;;;;6.82;4.63;;;;;;;;;;6174135;23;20072;-62
2023/11/13 11:25:47;;;;;;;6.53;3.67;;;;;;;;;;6173696;23;20541;-63
2023/11/13 11:28:41;;;;;;;8.25;4.47;;;;;;;;;;6168752;23;20025;-62
2023/11/13 11:31:38;;;;;;;5.90;3.88;;;;;;;;;;6173431;23;20017;-62
2023/11/13 11:34:28;;;;;;;6.55;3.65;;;;;;;;;;6172966;23;20029;-62
2023/11/13 11:37:19;;;;;;;6.82;4.03;;;;;;;;;;6173158;23;20100;-62
2023/11/13 11:40:12;;;;;;;4.93;3.72;;;;;;;;;;6173478;23;20373;-62
2023/11/13 11:43:02;;;;;;;5.78;4.25;;;;;;;;;;6175370;23;20033;-61
2023/11/13 11:45:57;;;;;;;6.50;4.00;;;;;;;;;;6171436;23;20028;-61
2023/11/13 11:48:48;;;;;;;5.85;3.70;;;;;;;;;;6174134;23;20025;-61
2023/11/13 11:51:44;;;;;;;6.47;4.03;;;;;;;;;;6174168;23;20052;-61
2023/11/13 11:54:33;;;;;;;4.30;3.20;;;;;;;;;;6173506;23;20021;-61
2023/11/13 11:57:33;;;;;;;4.78;3.42;;;;;;;;;;6172850;23;20084;-61
2023/11/13 12:00:21;;;;;;;4.57;3.17;;;;;;;;;;6174791;23;20029;-59
2023/11/13 12:03:28;;;;;;;5.22;3.58;;;;;;;;;;6176987;23;20408;-60
2023/11/13 12:06:16;;;;;;;6.28;3.65;;;;;;;;;;6176783;23;20067;-59
2023/11/13 12:09:10;;;;;;;5.85;4.43;;;;;;;;;;6176461;23;20466;-58
2023/11/13 12:11:59;;;;;;;5.38;3.97;;;;;;;;;;6175837;23;20329;-60
2023/11/13 12:14:51;;;;;;;5.20;3.47;;;;;;;;;;6176393;23;20091;-57
2023/11/13 12:17:39;;;;;;;4.45;3.33;;;;;;;;;;6175497;23;20094;-59
2023/11/13 12:20:33;;;;;;;5.07;3.58;;;;;;;;;;6176911;23;20024;-52
2023/11/13 12:23:20;;;;;;;8.80;3.35;;;;;;;;;;6178108;23;20025;-52
2023/11/13 12:26:14;;;;;;;4.65;3.35;;;;;;;;;;6176126;23;20116;-53
2023/11/13 12:29:11;;;;;;;3.97;3.30;;;;;;;;;;6174834;23;20116;-61
2023/11/13 12:32:08;;;;;;;10.07;3.50;;;;;;;;;;6176479;23;20029;-64
2023/11/13 12:34:55;;;;;;;8.77;3.42;;;;;;;;;;6175509;23;20108;-65
2023/11/13 12:37:49;;;;;;;4.32;3.30;;;;;;;;;;6175703;23;20539;-64
2023/11/13 12:40:37;;;;;;;4.90;3.80;;;;;;;;;;6175750;23;20028;-65
2023/11/13 12:43:31;;;;;;;5.47;3.53;;;;;;;;;;6176479;23;20021;-65
2023/11/13 12:46:25;;;;;;;7.93;3.80;;;;;;;;;;6177295;23;20021;-65
2023/11/13 12:49:19;;;;;;;8.65;3.78;;;;;;;;;;6174214;23;20518;-59
2023/11/13 12:52:07;;;;;;;5.57;3.20;;;;;;;;;;6177047;23;20021;-60
2023/11/13 12:55:03;;;;;;;5.57;3.65;;;;;;;;;;6176839;23;20753;-60
2023/11/13 12:57:58;;;;;;;5.47;3.13;;;;;;;;;;6177082;23;20432;-61
2023/11/13 13:00:59;;;;;;;4.57;3.50;;;;;;;;;;6174316;23;20032;-58
2023/11/13 13:03:53;;;;;;;4.97;3.50;;;;;;;;;;6146635;23;20022;-59
2023/11/13 13:06:48;;;;;;;4.97;3.53;;;;;;;;;;6147419;23;20021;-58
2023/11/13 13:09:33;;;;;;;5.05;3.53;;;;;;;;;;6145115;23;20352;-59
2023/11/13 13:12:31;;;;;;;11.43;3.80;;;;;;;;;;6147372;23;20029;-59
2023/11/13 13:15:17;;;;;;;7.05;3.72;;;;;;;;;;6143569;23;20025;-58
2023/11/13 13:18:12;;;;;;;5.97;3.70;;;;;;;;;;6145393;23;20025;-51
2023/11/13 13:20:42;;;;;;;5.10;3.60;;;;;;;;;;6146326;23;20546;-53
2023/11/13 13:23:34;;;;;;;5.15;3.60;;;;;;;;;;6146516;23;20025;-53
2023/11/13 13:26:21;;;;;;;4.93;3.63;;;;;;;;;;6145559;23;20032;-65
2023/11/13 13:29:15;;;;;;;6.63;3.42;;;;;;;;;;6145885;23;20022;-60
2023/11/13 13:32:03;;;;;;;5.68;3.35;;;;;;;;;;6145706;23;20084;-60
2023/11/13 13:34:56;;;;;;;5.72;3.38;;;;;;;;;;6146605;23;20404;-60
2023/11/13 13:37:43;;;;;;;4.20;3.00;;;;;;;;;;6145928;23;20411;-60
2023/11/13 13:40:41;;;;;;;5.43;3.17;;;;;;;;;;6145409;23;20084;-59
2023/11/13 13:43:24;;;;;;;5.38;3.35;;;;;;;;;;6138132;23;20443;-60
2023/11/13 13:46:19;;;;;;;6.72;3.45;;;;;;;;;;6143920;23;20032;-63
2023/11/13 13:49:06;;;;;;;4.47;3.30;;;;;;;;;;6145812;23;20021;-57
2023/11/13 13:52:03;;;;;;;4.20;3.45;;;;;;;;;;6146136;23;20033;-59
2023/11/13 13:54:47;;;;;;;7.95;3.28;;;;;;;;;;6143611;23;20022;-58
2023/11/13 13:57:43;;;;;;;5.68;3.10;;;;;;;;;;6145130;23;20022;-59
2023/11/13 14:00:29;;;;;;;3.60;2.83;;;;;;;;;;6145222;23;20025;-60
2023/11/13 14:03:30;;;;;;;4.93;3.70;;;;;;;;;;6173296;23;20115;-60
2023/11/13 14:05:57;;;;;;;5.70;3.97;;;;;;;;;;6175344;23;20017;-60
2023/11/13 14:08:51;;;;;;;5.38;3.58;;;;;;;;;;6175331;23;20442;-59
2023/11/13 14:11:39;;;;;;;5.47;3.63;;;;;;;;;;6173909;23;20467;-61
2023/11/13 14:14:44;;;;;;;6.95;4.20;;;;;;;;;;6176330;23;20036;-52
2023/11/13 14:17:31;;;;;;;6.32;4.30;;;;;;;;;;6173722;23;20029;-59
2023/11/13 14:20:25;;;;;;;5.35;3.75;;;;;;;;;;6175588;23;20021;-60
2023/11/13 14:23:20;;;;;;;5.75;3.90;;;;;;;;;;6176079;23;20025;-60
2023/11/13 14:26:08;;;;;;;5.13;3.65;;;;;;;;;;6174193;23;20029;-60
2023/11/13 14:29:00;;;;;;;5.90;3.78;;;;;;;;;;6175684;23;20641;-60
2023/11/13 14:31:47;;;;;;;6.50;4.05;;;;;;;;;;6173678;23;20025;-64
2023/11/13 14:34:41;;;;;;;10.93;3.63;;;;;;;;;;6174972;23;20028;-60
2023/11/13 14:37:28;;;;;;;6.43;3.75;;;;;;;;;;6175491;23;20021;-60
2023/11/13 14:40:26;;;;;;;8.00;4.28;;;;;;;;;;6174815;23;20032;-59
2023/11/13 14:43:10;;;;;;;5.17;3.70;;;;;;;;;;6173390;23;20465;-60
2023/11/13 14:46:06;;;;;;;7.00;3.20;;;;;;;;;;6175686;23;20256;-60
2023/11/13 14:48:52;;;;;;;5.38;4.10;;;;;;;;;;6167628;23;20534;-60
2023/11/13 14:51:29;;;;;;;5.57;4.00;;;;;;;;;;6175733;23;20028;-61
2023/11/13 14:54:13;;;;;;;6.28;3.75;;;;;;;;;;6171746;23;20029;-53
2023/11/13 14:57:07;;;;;;;4.35;3.45;;;;;;;;;;6175466;23;20107;-50
2023/11/13 14:59:54;;;;;;;4.50;3.60;;;;;;;;;;6173529;23;20029;-52
2023/11/13 15:03:02;;;;;;;4.75;3.55;;;;;;;;;;6173126;23;20039;-50
2023/11/13 15:05:48;;;;;;;4.85;3.42;;;;;;;;;;6171603;23;20025;-48
2023/11/13 15:08:42;;;;;;;5.07;3.70;;;;;;;;;;6174936;23;20545;-52
2023/11/13 15:11:29;;;;;;;7.63;4.70;;;;;;;;;;6173806;23;20720;-60
2023/11/13 15:14:23;;;;;;;5.00;3.75;;;;;;;;;;6175716;23;20075;-59
2023/11/13 15:17:17;;;;;;;6.38;4.53;;;;;;;;;;6172535;23;20021;-60
2023/11/13 15:20:12;;;;;;;5.78;3.97;;;;;;;;;;6173529;23;20017;-60
2023/11/13 15:22:59;;;;;;;7.53;4.50;;;;;;;;;;6173980;23;20055;-60
2023/11/13 15:25:53;;;;;;;4.32;3.30;;;;;;;;;;6168855;23;20021;-60
2023/11/13 15:28:20;;;;;;;5.43;3.78;;;;;;;;;;6174345;23;20025;-57
2023/11/13 15:31:15;;;;;;;8.55;4.10;;;;;;;;;;6169510;23;20108;-60
2023/11/13 15:34:08;;;;;;;6.72;3.92;;;;;;;;;;6175345;23;20021;-60
2023/11/13 15:36:55;;;;;;;5.30;4.03;;;;;;;;;;6172025;23;20048;-61
2023/11/13 15:39:43;;;;;;;6.03;4.00;;;;;;;;;;6173565;23;20637;-60
2023/11/13 15:42:36;;;;;;;6.57;4.20;;;;;;;;;;6173156;23;20810;-60
2023/11/13 15:45:23;;;;;;;5.40;3.95;;;;;;;;;;6173508;23;20025;-59
2023/11/13 15:48:17;;;;;;;6.22;4.20;;;;;;;;;;6175334;23;20048;-58
2023/11/13 15:51:04;;;;;;;5.20;3.83;;;;;;;;;;6169636;23;20466;-59
2023/11/13 15:53:58;;;;;;;4.45;3.30;;;;;;;;;;6163113;23;20033;-59
2023/11/13 15:56:45;;;;;;;5.40;3.83;;;;;;;;;;6173206;23;20032;-57
2023/11/13 15:59:39;;;;;;;7.07;4.28;;;;;;;;;;6173066;23;20029;-59
2023/11/13 16:02:33;;;;;;;5.82;3.47;;;;;;;;;;6174503;23;20021;-58
2023/11/13 16:05:26;;;;;;;5.28;3.92;;;;;;;;;;6170749;23;20025;-49
2023/11/13 16:08:17;;;;;;;4.13;3.42;;;;;;;;;;6173189;23;20029;-60
2023/11/13 16:11:07;;;;;;;4.22;3.05;;;;;;;;;;6173893;23;20091;-59
2023/11/13 16:13:54;;;;;;;3.88;2.47;;;;;;;;;;6169007;23;20032;-59
2023/11/13 16:16:48;;;;;;;4.47;2.42;;;;;;;;;;6162914;23;20563;-60
2023/11/13 16:19:37;;;;;;;4.30;3.30;;;;;;;;;;6173493;23;20021;-61
2023/11/13 16:22:12;;;;;;;4.53;3.10;;;;;;;;;;6172320;23;20100;-52
2023/11/13 16:24:39;;;;;;;5.30;3.53;;;;;;;;;;6174429;23;20341;-61
2023/11/13 16:27:13;;;;;;;4.85;3.50;;;;;;;;;;6172089;23;20037;-61
2023/11/13 16:30:00;;;;;;;4.55;3.42;;;;;;;;;;6173153;23;20021;-61
2023/11/13 16:32:54;;;;;;;4.40;3.00;;;;;;;;;;6171302;23;20036;-61
2023/11/13 16:35:44;;;;;;;4.50;3.50;;;;;;;;;;6173319;23;20028;-61
2023/11/13 16:38:35;;;;;;;4.50;3.08;;;;;;;;;;6172528;23;20040;-61
2023/11/13 16:41:25;;;;;;;5.63;2.95;;;;;;;;;;6171834;23;20024;-59
2023/11/13 16:44:17;;;;;;;4.05;3.28;;;;;;;;;;6167661;23;20501;-51
2023/11/13 16:47:03;;;;;;;4.00;2.80;;;;;;;;;;6169919;23;20021;-50
2023/11/13 16:49:57;;;;;;;4.13;3.40;;;;;;;;;;6173874;23;20032;-55
2023/11/13 16:52:45;;;;;;;5.55;3.83;;;;;;;;;;6174104;23;20507;-52
2023/11/13 16:55:38;;;;;;;4.75;3.30;;;;;;;;;;6175345;23;20699;-54
2023/11/13 16:58:26;;;;;;;4.60;3.38;;;;;;;;;;6173867;23;20021;-53
2023/11/13 17:01:21;;;;;;;5.85;3.90;;;;;;;;;;6175953;23;20450;-63
2023/11/13 17:04:14;;;;;;;6.50;4.28;;;;;;;;;;6144509;23;20057;-63